Time;durP1;ratioP1;P1;durP2;ratioP2;P2;SDS_P1;SDS_P2;PMS_P1;PMS_P2;Temp;Humidity;BMP_temperature;BMP_pressure;BME280_temperature;BME280_humidity;BME280_pressure;Samples;Min_cycle;Max_cycle;Signal;HPM_P1;HPM_P2
2021/06/23 00:00:50;;;;;;;16.80;15.50;;;;;;;30.12;55.80;100209.97;20972904;28;20741;-67
2021/06/23 00:10:51;;;;;;;20.07;18.37;;;;;;;29.81;56.27;100204.56;20933823;28;20228;-67
2021/06/23 00:20:52;;;;;;;22.47;20.37;;;;;;;29.56;57.15;100199.94;20960440;28;20278;-69
2021/06/23 00:30:52;;;;;;;26.07;23.70;;;;;;;29.00;59.22;100199.88;20947975;28;20355;-65
2021/06/23 00:40:53;;;;;;;24.80;22.80;;;;;;;29.09;58.38;100205.97;20987291;28;20648;-64
2021/06/23 00:50:55;;;;;;;24.30;22.03;;;;;;;29.34;56.98;100217.84;20965617;28;21046;-67
2021/06/23 01:00:57;;;;;;;24.27;22.07;;;;;;;29.30;57.49;100222.94;20981125;28;20217;-65
2021/06/23 01:10:57;;;;;;;23.27;21.27;;;;;;;29.34;57.12;100231.59;20973962;28;20260;-65
2021/06/23 01:20:58;;;;;;;26.23;23.97;;;;;;;29.11;57.71;100250.53;20970521;28;20737;-65
2021/06/23 01:30:59;;;;;;;21.70;19.93;;;;;;;29.45;56.06;100250.16;20981842;28;20728;-65
2021/06/23 01:41:00;;;;;;;20.60;18.77;;;;;;;29.40;55.92;100265.63;20960167;28;20580;-65
2021/06/23 01:51:02;;;;;;;22.30;20.47;;;;;;;29.21;56.08;100267.41;20981308;28;20702;-63
2021/06/23 02:01:14;;;;;;;21.77;19.97;;;;;;;29.14;56.73;100272.09;20958751;28;20298;-63
2021/06/23 02:11:34;;;;;;;20.47;18.77;;;;;;;29.08;57.63;100260.09;20980255;28;20880;-64
2021/06/23 02:21:39;;;;;;;44.93;22.57;;;;;;;29.19;56.56;100270.38;20958475;28;20219;-63
2021/06/23 02:31:39;;;;;;;40.40;23.37;;;;;;;29.06;57.00;100286.94;20974100;28;20226;-62
2021/06/23 02:41:40;;;;;;;24.80;22.70;;;;;;;29.21;57.05;100301.25;20963941;28;20235;-62
2021/06/23 02:51:41;;;;;;;28.37;25.97;;;;;;;29.36;57.64;100325.66;20964913;28;20220;-62
2021/06/23 03:01:42;;;;;;;25.23;23.23;;;;;;;29.57;57.00;100339.13;20973930;28;20232;-67
2021/06/23 03:11:43;;;;;;;26.33;24.27;;;;;;;29.46;56.85;100348.09;20957193;28;20301;-64
2021/06/23 03:21:43;;;;;;;26.03;23.63;;;;;;;29.57;56.95;100349.28;20976236;28;20221;-63
2021/06/23 03:31:44;;;;;;;51.17;27.27;;;;;;;29.54;57.57;100372.56;20952443;28;20237;-62
2021/06/23 03:41:44;;;;;;;62.83;26.03;;;;;;;29.74;57.54;100395.28;20974445;28;20584;-63
2021/06/23 03:51:45;;;;;;;147.37;27.70;;;;;;;29.46;58.65;100389.34;20955481;28;20488;-64
2021/06/23 04:01:45;;;;;;;69.50;27.33;;;;;;;29.35;59.08;100389.97;20987571;28;20287;-63
2021/06/23 04:11:46;;;;;;;48.53;23.03;;;;;;;29.71;58.35;100412.22;20978006;28;20238;-65
2021/06/23 04:21:46;;;;;;;25.00;21.60;;;;;;;29.88;57.40;100422.69;20977811;28;20683;-65
2021/06/23 04:31:47;;;;;;;23.97;21.60;;;;;;;30.11;56.59;100438.66;20985209;28;20457;-63
2021/06/23 04:41:47;;;;;;;23.83;21.53;;;;;;;30.12;57.25;100437.59;20964575;28;20241;-62
2021/06/23 04:51:48;;;;;;;26.90;22.53;;;;;;;30.54;56.45;100434.09;20986662;28;20284;-63
2021/06/23 05:01:48;;;;;;;25.73;23.30;;;;;;;31.34;55.39;100428.56;20945633;28;20239;-65
2021/06/23 05:11:49;;;;;;;20.53;18.77;;;;;;;31.72;54.45;100453.16;20985428;28;20313;-63
2021/06/23 05:21:50;;;;;;;19.47;17.80;;;;;;;32.20;53.23;100467.75;20965915;28;20211;-64
2021/06/23 05:31:51;;;;;;;21.97;19.87;;;;;;;32.71;52.99;100454.34;20975540;28;20560;-64
2021/06/23 05:41:52;;;;;;;19.93;18.13;;;;;;;33.78;51.14;100480.56;20971210;28;20230;-64
2021/06/23 05:51:53;;;;;;;18.00;16.50;;;;;;;34.26;50.14;100482.03;20970445;28;20240;-64
2021/06/23 06:01:53;;;;;;;19.60;18.00;;;;;;;34.73;48.94;100501.13;20976940;28;20222;-64
2021/06/23 06:11:53;;;;;;;17.80;16.40;;;;;;;34.84;48.62;100494.66;20959983;28;20961;-64
2021/06/23 06:22:01;;;;;;;17.93;16.43;;;;;;;34.72;48.65;100507.75;20978925;28;20221;-65
2021/06/23 06:32:08;;;;;;;18.67;17.10;;;;;;;33.72;47.63;100500.03;20955963;28;20242;-66
2021/06/23 06:42:09;;;;;;;16.13;14.93;;;;;;;33.83;49.17;100504.72;20977625;28;20768;-67
2021/06/23 06:52:09;;;;;;;15.27;14.17;;;;;;;34.96;47.90;100523.13;20957961;28;20216;-65
2021/06/23 07:02:10;;;;;;;14.57;13.25;;;;;;;36.12;45.48;100525.81;20974118;28;20878;-66
2021/06/23 07:12:10;;;;;;;13.85;12.85;;;;;;;36.06;44.93;100552.72;20962930;28;20618;-65
2021/06/23 07:22:11;;;;;;;12.73;11.82;;;;;;;36.16;43.86;100546.41;20965715;28;20253;-62
2021/06/23 07:32:15;;;;;;;13.40;12.40;;;;;;;35.90;44.55;100554.47;20975628;28;20305;-64
2021/06/23 07:42:16;;;;;;;12.33;11.30;;;;;;;35.83;46.06;100547.44;20985398;28;20715;-65
2021/06/23 07:52:28;;;;;;;10.68;9.88;;;;;;;36.19;45.27;100543.13;20986142;28;20359;-66
2021/06/23 08:12:54;;;;;;;10.98;10.18;;;;;;;36.54;44.29;100560.19;20951558;28;20578;-69
2021/06/23 08:22:55;;;;;;;12.43;11.32;;;;;;;36.32;43.75;100564.97;20973240;28;20242;-64
2021/06/23 08:32:57;;;;;;;10.85;10.05;;;;;;;37.34;44.16;100575.88;20950635;28;20988;-63
2021/06/23 08:42:58;;;;;;;13.10;11.98;;;;;;;36.46;44.73;100580.13;20978645;28;20218;-65
2021/06/23 08:52:58;;;;;;;12.07;10.88;;;;;;;36.82;43.89;100589.69;20968415;28;20311;-65
2021/06/23 09:03:06;;;;;;;13.13;11.95;;;;;;;36.74;43.23;100599.31;20982300;28;20280;-64
2021/06/23 09:13:06;;;;;;;16.25;14.85;;;;;;;37.29;43.14;100623.19;20974209;28;20635;-64
2021/06/23 09:23:07;;;;;;;14.07;12.77;;;;;;;37.92;42.51;100629.69;20973270;28;20221;-63
2021/06/23 09:33:22;;;;;;;13.75;12.50;;;;;;;37.90;41.23;100617.16;20980025;28;20225;-64
2021/06/23 09:43:37;;;;;;;13.77;12.68;;;;;;;38.41;40.31;100632.97;20996458;28;20227;-68
2021/06/23 09:53:44;;;;;;;14.60;13.25;;;;;;;38.74;41.28;100628.91;20981018;28;20309;-62
2021/06/23 10:04:00;;;;;;;13.13;11.85;;;;;;;38.18;39.45;100637.09;20957389;28;20300;-63
2021/06/23 10:14:01;;;;;;;13.48;12.38;;;;;;;37.84;41.26;100635.78;20980412;28;20578;-63
2021/06/23 10:24:03;;;;;;;10.80;9.90;;;;;;;38.40;40.83;100641.63;20959301;28;20223;-64
2021/06/23 10:34:04;;;;;;;11.60;10.75;;;;;;;38.70;41.40;100638.94;20977683;28;20215;-62
2021/06/23 10:44:16;;;;;;;9.45;8.75;;;;;;;39.79;37.31;100645.88;20968026;28;20263;-64
2021/06/23 10:54:32;;;;;;;11.20;10.30;;;;;;;38.66;38.93;100648.94;20975802;28;20979;-63
2021/06/23 11:05:01;;;;;;;11.20;10.30;;;;;;;39.12;37.97;100657.41;20969312;28;21124;-63
2021/06/23 11:15:25;;;;;;;10.60;9.80;;;;;;;38.46;38.83;100634.94;20962673;28;20222;-62
2021/06/23 11:25:35;;;;;;;10.52;9.57;;;;;;;40.02;36.32;100644.41;20973958;28;20234;-64
2021/06/23 11:35:35;;;;;;;11.02;8.98;;;;;;;39.19;38.95;100625.28;20954003;28;20687;-63
2021/06/23 11:45:36;;;;;;;10.85;9.90;;;;;;;38.38;39.30;100619.59;20975092;28;20222;-61
2021/06/23 11:55:37;;;;;;;9.85;8.95;;;;;;;39.02;38.94;100601.56;20966943;28;20341;-63
2021/06/23 12:05:38;;;;;;;11.48;10.57;;;;;;;38.15;39.64;100614.50;20974734;28;20453;-62
2021/06/23 12:15:39;;;;;;;11.52;10.65;;;;;;;37.64;40.95;100613.41;20960202;28;20561;-63
2021/06/23 12:25:50;;;;;;;12.52;11.40;;;;;;;37.25;40.72;100622.03;20984120;28;20215;-63
2021/06/23 12:35:51;;;;;;;12.93;11.60;;;;;;;37.34;41.13;100625.16;20976685;28;20234;-64
2021/06/23 12:45:51;;;;;;;11.20;10.18;;;;;;;37.89;40.64;100626.63;20976723;28;20246;-65
2021/06/23 12:55:52;;;;;;;11.95;10.65;;;;;;;37.81;40.50;100598.16;20983353;28;20296;-63
2021/06/23 13:05:52;;;;;;;13.18;11.27;;;;;;;37.97;40.45;100624.16;20965506;28;20298;-61
2021/06/23 13:15:55;;;;;;;12.27;11.18;;;;;;;38.07;40.24;100635.34;20985326;28;20218;-62
2021/06/23 13:25:55;;;;;;;11.48;10.57;;;;;;;38.92;38.97;100639.50;20960801;28;20683;-62
2021/06/23 13:35:56;;;;;;;11.38;10.32;;;;;;;38.62;39.32;100652.59;20984219;28;20222;-63
2021/06/23 13:45:57;;;;;;;13.75;10.50;;;;;;;38.29;39.54;100659.41;20964024;28;20453;-66
2021/06/23 13:55:57;;;;;;;11.25;10.38;;;;;;;38.22;39.80;100650.50;20961148;28;20806;-63
2021/06/23 14:05:58;;;;;;;10.73;9.75;;;;;;;39.00;39.03;100649.31;20952120;28;20217;-63
2021/06/23 14:15:59;;;;;;;11.48;10.52;;;;;;;38.00;39.58;100657.06;20969008;28;20214;-62
2021/06/23 14:26:00;;;;;;;10.60;9.70;;;;;;;37.84;39.92;100666.44;20999510;28;20240;-64
2021/06/23 14:36:01;;;;;;;11.55;10.43;;;;;;;37.29;40.56;100647.41;20959061;28;20226;-61
2021/06/23 14:46:02;;;;;;;11.35;10.38;;;;;;;36.66;41.80;100647.06;20978286;28;20238;-66
2021/06/23 14:56:02;;;;;;;10.40;9.30;;;;;;;37.13;41.33;100663.09;20981189;28;20604;-61
2021/06/23 15:06:08;;;;;;;10.95;10.00;;;;;;;37.06;41.16;100663.34;20987291;28;20994;-60
2021/06/23 15:16:08;;;;;;;9.40;8.70;;;;;;;37.07;41.03;100650.28;20985369;28;20297;-63
2021/06/23 15:26:09;;;;;;;10.23;9.35;;;;;;;37.53;40.77;100684.06;20987049;28;20629;-63
2021/06/23 15:36:09;;;;;;;9.73;9.02;;;;;;;38.10;39.39;100685.00;20984291;28;20309;-63
2021/06/23 15:46:10;;;;;;;9.27;8.43;;;;;;;37.54;40.62;100661.50;21012181;28;20297;-63
2021/06/23 15:56:11;;;;;;;10.32;9.38;;;;;;;37.60;40.06;100662.38;21084511;28;20297;-63
2021/06/23 16:06:11;;;;;;;10.07;9.27;;;;;;;36.81;41.22;100667.84;21067102;28;20460;-63
2021/06/23 16:16:12;;;;;;;10.63;9.23;;;;;;;36.07;41.86;100674.72;21066422;28;20233;-63
2021/06/23 16:26:12;;;;;;;11.90;9.93;;;;;;;36.01;42.76;100672.94;21065936;28;20241;-63
2021/06/23 16:36:13;;;;;;;11.93;10.70;;;;;;;36.21;42.04;100666.00;21083352;28;20690;-63
2021/06/23 16:46:13;;;;;;;10.82;9.93;;;;;;;36.41;42.34;100661.53;21081118;28;20279;-63
2021/06/23 16:56:14;;;;;;;10.90;10.05;;;;;;;36.37;41.90;100676.22;21063067;28;20309;-64
2021/06/23 17:06:16;;;;;;;10.73;9.82;;;;;;;36.29;41.34;100680.31;21062213;28;20241;-63
2021/06/23 17:16:18;;;;;;;10.50;8.95;;;;;;;34.80;43.15;100677.34;21070990;28;20800;-65
2021/06/23 17:26:19;;;;;;;12.43;11.30;;;;;;;33.84;45.04;100686.41;21033283;28;20223;-64
2021/06/23 17:36:19;;;;;;;12.03;10.90;;;;;;;33.03;47.21;100671.38;21065586;28;20225;-62
2021/06/23 17:46:20;;;;;;;12.83;11.73;;;;;;;32.82;47.83;100652.59;21023671;28;20226;-63
2021/06/23 17:56:20;;;;;;;12.70;11.57;;;;;;;32.55;48.44;100672.28;21066244;28;20959;-63
2021/06/23 18:06:21;;;;;;;13.27;11.90;;;;;;;32.14;49.35;100661.94;21044422;28;20216;-67
2021/06/23 18:16:21;;;;;;;13.53;12.33;;;;;;;32.05;49.62;100671.63;21060263;28;20218;-63
2021/06/23 18:26:22;;;;;;;12.83;11.53;;;;;;;32.28;48.63;100679.22;21019853;28;20691;-65
2021/06/23 18:36:23;;;;;;;13.77;12.57;;;;;;;31.52;50.51;100691.47;21086736;28;20248;-65
2021/06/23 18:46:23;;;;;;;14.80;13.60;;;;;;;31.01;51.72;100713.75;21110911;28;21015;-68
2021/06/23 18:56:24;;;;;;;14.17;12.77;;;;;;;31.30;50.25;100719.69;21042551;28;20214;-65
2021/06/23 19:06:24;;;;;;;14.50;13.30;;;;;;;31.39;49.87;100741.28;21058748;28;20219;-65
2021/06/23 19:16:25;;;;;;;13.50;12.20;;;;;;;31.77;48.78;100754.97;21036833;28;20679;-65
2021/06/23 19:26:25;;;;;;;11.57;10.47;;;;;;;32.22;47.60;100787.91;21058361;28;20320;-65
2021/06/23 19:36:26;;;;;;;12.40;11.30;;;;;;;32.20;47.97;100782.59;21010309;28;21033;-69
2021/06/23 19:46:26;;;;;;;13.80;12.50;;;;;;;32.36;47.66;100803.25;21020626;28;20234;-66
2021/06/23 19:56:37;;;;;;;11.93;11.03;;;;;;;32.49;47.15;100800.31;21010235;28;20551;-65
2021/06/23 20:06:44;;;;;;;12.10;11.20;;;;;;;32.53;47.17;100793.25;21015797;28;20304;-65
2021/06/23 20:16:52;;;;;;;11.90;10.90;;;;;;;32.33;48.13;100786.28;21016539;28;20226;-67
2021/06/23 20:26:53;;;;;;;11.53;10.60;;;;;;;32.27;47.93;100788.03;21029937;28;20774;-65
2021/06/23 20:36:53;;;;;;;12.17;11.07;;;;;;;32.43;47.42;100781.91;21009104;28;20218;-67
2021/06/23 20:46:53;;;;;;;12.13;11.03;;;;;;;32.25;47.66;100779.13;21018042;28;20325;-65
2021/06/23 20:56:55;;;;;;;11.87;10.77;;;;;;;32.36;46.89;100774.78;21034411;28;21092;-66
2021/06/23 21:06:55;;;;;;;11.37;10.37;;;;;;;32.40;47.08;100770.47;21035413;27;20250;-66
2021/06/23 21:17:06;;;;;;;10.57;9.57;;;;;;;32.43;47.71;100761.72;21047920;27;20699;-68
2021/06/23 21:27:10;;;;;;;11.60;10.50;;;;;;;32.27;47.15;100765.94;21075312;28;20271;-66
2021/06/23 21:37:43;;;;;;;13.13;11.00;;;;;;;31.83;49.40;100759.59;21078801;28;20225;-66
2021/06/23 21:47:50;;;;;;;13.63;12.43;;;;;;;31.34;48.77;100743.00;20748138;28;20217;-65
2021/06/23 21:57:51;;;;;;;12.47;11.27;;;;;;;31.30;48.90;100737.09;20737252;28;20586;-68
2021/06/23 22:07:52;;;;;;;13.30;12.20;;;;;;;31.21;49.32;100721.88;20752953;28;20213;-68
2021/06/23 22:17:55;;;;;;;12.37;11.23;;;;;;;31.24;49.05;100717.84;20810766;28;20632;-68
2021/06/23 22:28:00;;;;;;;11.23;10.33;;;;;;;31.19;49.80;100740.56;20907169;28;20609;-67
2021/06/23 22:38:03;;;;;;;13.03;12.03;;;;;;;31.21;49.21;100740.34;20923825;28;20750;-67
2021/06/23 22:48:10;;;;;;;16.63;15.13;;;;;;;30.77;50.61;100748.44;20888694;28;20708;-68
2021/06/23 22:58:11;;;;;;;18.77;17.17;;;;;;;30.65;51.19;100744.69;20905659;28;20226;-65
2021/06/23 23:08:11;;;;;;;18.27;16.57;;;;;;;30.79;50.00;100746.28;20904620;28;20245;-65
2021/06/23 23:18:12;;;;;;;17.10;15.70;;;;;;;30.56;50.07;100723.09;20926201;28;20696;-65
2021/06/23 23:28:12;;;;;;;16.70;15.37;;;;;;;30.20;50.37;100718.13;20903383;28;20465;-64
2021/06/23 23:38:14;;;;;;;15.07;13.87;;;;;;;30.16;50.60;100711.41;20904310;28;20248;-66
2021/06/23 23:48:14;;;;;;;15.83;14.43;;;;;;;29.93;50.52;100696.19;20902288;28;20233;-65
2021/06/23 23:58:15;;;;;;;17.67;15.87;;;;;;;29.87;51.54;100696.19;20903736;28;20261;-65
